Main page
METAR-TAF:

METAR-TAF

Airports :

Wiener Neustadt, Austria

Wiener Neustadt East Airport

latitude: 47-50-36N, longitude: 016-15-29E, elevation: 272 m

Current weather observation

The report was made 13 hours and 24 minutes ago, at 15:00 UTC
Wind 10 kt from the Northwest
Temperature
Pressure

METAR: LOAN 171500Z 31010KT 25KM FEW025CU SCT050SC BKN070SC

Time: 05:24 (04:24 UTC)

Forecast

The report was made 16 hours and 59 minutes ago, at 11:25 UTC
Forecast valid from 17 at 12 UTC to 17 at 21 UTC
Wind 8 kt from the North
Visibility 10 km or more
Scattered clouds at a height of 3000 ft
Broken clouds at a height of 5000 ft

TAF: LOAN 171125Z 1712/1721 36008KT 9999 SCT030 BKN050

Weather observations and forecasts of more than 4000 airports (METAR and TAF reports).

The available stations are represented by yellow and red dots on the map.

Hover mouse over dot to see the name of the station.

Then click to see weather observations and forecasts.

To change the map : click on the green buttons with a black cross to zoom in, on the green button with a dash to zoom out, or on the green arrows for adjacent maps.


METAR-TAF: